sensor_id;sensor_type;location;lat;lon;timestamp;temperature;humidity
23087;DHT22;11712;51.134;4.156;2023-05-10T00:01:48;13.30;99.90
23087;DHT22;11712;51.134;4.156;2023-05-10T00:04:14;13.20;99.90
23087;DHT22;11712;51.134;4.156;2023-05-10T00:06:39;13.30;99.90
23087;DHT22;11712;51.134;4.156;2023-05-10T00:09:05;13.30;99.90
23087;DHT22;11712;51.134;4.156;2023-05-10T00:11:31;13.40;99.90
23087;DHT22;11712;51.134;4.156;2023-05-10T00:13:56;13.40;99.90
23087;DHT22;11712;51.134;4.156;2023-05-10T00:16:22;13.50;99.90
23087;DHT22;11712;51.134;4.156;2023-05-10T00:18:47;13.50;99.90
23087;DHT22;11712;51.134;4.156;2023-05-10T00:21:13;13.50;99.90
23087;DHT22;11712;51.134;4.156;2023-05-10T00:23:38;13.40;99.90
23087;DHT22;11712;51.134;4.156;2023-05-10T00:26:04;13.40;99.90
23087;DHT22;11712;51.134;4.156;2023-05-10T00:28:30;13.50;99.90
23087;DHT22;11712;51.134;4.156;2023-05-10T00:30:55;13.40;99.90
23087;DHT22;11712;51.134;4.156;2023-05-10T00:33:21;13.40;99.90
23087;DHT22;11712;51.134;4.156;2023-05-10T00:35:46;13.40;99.90
23087;DHT22;11712;51.134;4.156;2023-05-10T00:38:12;13.30;99.90
23087;DHT22;11712;51.134;4.156;2023-05-10T00:40:38;13.30;99.90
23087;DHT22;11712;51.134;4.156;2023-05-10T00:43:03;13.30;99.90
23087;DHT22;11712;51.134;4.156;2023-05-10T00:45:30;13.30;99.90
23087;DHT22;11712;51.134;4.156;2023-05-10T00:47:55;13.30;99.90
23087;DHT22;11712;51.134;4.156;2023-05-10T00:50:21;13.50;99.90
23087;DHT22;11712;51.134;4.156;2023-05-10T00:52:47;13.40;99.90
23087;DHT22;11712;51.134;4.156;2023-05-10T00:55:13;13.50;99.90
23087;DHT22;11712;51.134;4.156;2023-05-10T00:57:38;13.40;99.90
23087;DHT22;11712;51.134;4.156;2023-05-10T01:00:05;13.40;99.90
23087;DHT22;11712;51.134;4.156;2023-05-10T01:02:30;13.40;99.90
23087;DHT22;11712;51.134;4.156;2023-05-10T01:04:56;13.40;99.90
23087;DHT22;11712;51.134;4.156;2023-05-10T01:07:21;13.30;99.90
23087;DHT22;11712;51.134;4.156;2023-05-10T01:09:47;13.30;99.90
23087;DHT22;11712;51.134;4.156;2023-05-10T01:12:13;13.30;99.90
23087;DHT22;11712;51.134;4.156;2023-05-10T01:14:39;13.20;99.90
23087;DHT22;11712;51.134;4.156;2023-05-10T01:17:05;13.20;99.90
23087;DHT22;11712;51.134;4.156;2023-05-10T01:19:31;13.20;99.90
23087;DHT22;11712;51.134;4.156;2023-05-10T01:35:06;13.20;99.90
23087;DHT22;11712;51.134;4.156;2023-05-10T01:37:40;13.20;99.90
23087;DHT22;11712;51.134;4.156;2023-05-10T01:42:40;13.20;99.90
23087;DHT22;11712;51.134;4.156;2023-05-10T01:45:14;13.20;99.90
23087;DHT22;11712;51.134;4.156;2023-05-10T01:47:43;13.20;99.90
23087;DHT22;11712;51.134;4.156;2023-05-10T01:50:10;13.20;99.90
23087;DHT22;11712;51.134;4.156;2023-05-10T01:52:45;13.20;99.90
23087;DHT22;11712;51.134;4.156;2023-05-10T01:55:13;13.10;99.90
23087;DHT22;11712;51.134;4.156;2023-05-10T01:57:40;13.10;99.90
23087;DHT22;11712;51.134;4.156;2023-05-10T02:00:06;13.10;99.90
23087;DHT22;11712;51.134;4.156;2023-05-10T02:02:33;13.10;99.90
23087;DHT22;11712;51.134;4.156;2023-05-10T02:05:00;13.20;99.90
23087;DHT22;11712;51.134;4.156;2023-05-10T02:07:28;13.20;99.90
23087;DHT22;11712;51.134;4.156;2023-05-10T02:09:54;13.20;99.90
23087;DHT22;11712;51.134;4.156;2023-05-10T02:12:20;13.10;99.90
23087;DHT22;11712;51.134;4.156;2023-05-10T02:14:46;13.10;99.90
23087;DHT22;11712;51.134;4.156;2023-05-10T02:17:12;13.10;99.90
23087;DHT22;11712;51.134;4.156;2023-05-10T02:19:39;13.00;99.90
23087;DHT22;11712;51.134;4.156;2023-05-10T02:22:05;13.00;99.90
23087;DHT22;11712;51.134;4.156;2023-05-10T02:24:33;13.10;99.90
23087;DHT22;11712;51.134;4.156;2023-05-10T02:27:00;13.10;99.90
23087;DHT22;11712;51.134;4.156;2023-05-10T02:29:27;13.00;99.90
23087;DHT22;11712;51.134;4.156;2023-05-10T02:31:54;13.00;99.90
23087;DHT22;11712;51.134;4.156;2023-05-10T02:34:21;13.00;99.90
23087;DHT22;11712;51.134;4.156;2023-05-10T02:36:47;13.00;99.90
23087;DHT22;11712;51.134;4.156;2023-05-10T02:39:13;12.90;99.90
23087;DHT22;11712;51.134;4.156;2023-05-10T02:41:40;13.00;99.90
23087;DHT22;11712;51.134;4.156;2023-05-10T02:44:06;13.00;99.90
23087;DHT22;11712;51.134;4.156;2023-05-10T02:46:33;13.00;99.90
23087;DHT22;11712;51.134;4.156;2023-05-10T02:48:59;13.10;99.90
23087;DHT22;11712;51.134;4.156;2023-05-10T02:51:25;13.00;99.90
23087;DHT22;11712;51.134;4.156;2023-05-10T02:53:53;13.00;99.90
23087;DHT22;11712;51.134;4.156;2023-05-10T02:56:23;12.90;99.90
23087;DHT22;11712;51.134;4.156;2023-05-10T02:58:50;12.90;99.90
23087;DHT22;11712;51.134;4.156;2023-05-10T03:01:15;12.90;99.90
23087;DHT22;11712;51.134;4.156;2023-05-10T03:03:41;12.90;99.90
23087;DHT22;11712;51.134;4.156;2023-05-10T03:06:07;12.90;99.90
23087;DHT22;11712;51.134;4.156;2023-05-10T03:08:33;12.90;99.90
23087;DHT22;11712;51.134;4.156;2023-05-10T03:13:52;12.90;99.90
23087;DHT22;11712;51.134;4.156;2023-05-10T03:16:22;12.80;99.90
23087;DHT22;11712;51.134;4.156;2023-05-10T03:18:54;12.80;99.90
23087;DHT22;11712;51.134;4.156;2023-05-10T03:21:20;12.70;99.90
23087;DHT22;11712;51.134;4.156;2023-05-10T03:23:53;12.70;99.90
23087;DHT22;11712;51.134;4.156;2023-05-10T03:26:26;12.80;99.90
23087;DHT22;11712;51.134;4.156;2023-05-10T03:28:52;12.70;99.90
23087;DHT22;11712;51.134;4.156;2023-05-10T03:31:18;12.70;99.90
23087;DHT22;11712;51.134;4.156;2023-05-10T03:33:47;12.70;99.90
23087;DHT22;11712;51.134;4.156;2023-05-10T03:36:13;12.70;99.90
23087;DHT22;11712;51.134;4.156;2023-05-10T03:38:39;12.80;99.90
23087;DHT22;11712;51.134;4.156;2023-05-10T03:41:04;12.80;99.90
23087;DHT22;11712;51.134;4.156;2023-05-10T03:43:30;12.90;99.90
23087;DHT22;11712;51.134;4.156;2023-05-10T03:45:55;12.90;99.90
23087;DHT22;11712;51.134;4.156;2023-05-10T03:48:21;12.90;99.90
23087;DHT22;11712;51.134;4.156;2023-05-10T03:50:46;12.90;99.90
23087;DHT22;11712;51.134;4.156;2023-05-10T03:53:12;13.00;99.90
23087;DHT22;11712;51.134;4.156;2023-05-10T03:55:37;12.90;99.90
23087;DHT22;11712;51.134;4.156;2023-05-10T03:58:03;12.90;99.90
23087;DHT22;11712;51.134;4.156;2023-05-10T04:00:29;12.90;99.90
23087;DHT22;11712;51.134;4.156;2023-05-10T04:02:55;13.00;99.90
23087;DHT22;11712;51.134;4.156;2023-05-10T04:05:20;12.90;99.90
23087;DHT22;11712;51.134;4.156;2023-05-10T04:07:46;13.00;99.90
23087;DHT22;11712;51.134;4.156;2023-05-10T04:10:12;13.00;99.90
23087;DHT22;11712;51.134;4.156;2023-05-10T04:12:37;13.00;99.90
23087;DHT22;11712;51.134;4.156;2023-05-10T04:15:03;13.00;99.90
23087;DHT22;11712;51.134;4.156;2023-05-10T04:17:29;13.00;99.90
23087;DHT22;11712;51.134;4.156;2023-05-10T04:19:55;13.00;99.90
23087;DHT22;11712;51.134;4.156;2023-05-10T04:22:21;13.00;99.90
23087;DHT22;11712;51.134;4.156;2023-05-10T04:24:46;13.10;99.90
23087;DHT22;11712;51.134;4.156;2023-05-10T04:27:12;13.10;99.90
23087;DHT22;11712;51.134;4.156;2023-05-10T04:29:37;13.10;99.90
23087;DHT22;11712;51.134;4.156;2023-05-10T04:32:03;13.10;99.90
23087;DHT22;11712;51.134;4.156;2023-05-10T04:34:29;13.00;99.90
23087;DHT22;11712;51.134;4.156;2023-05-10T04:36:54;13.00;99.90
23087;DHT22;11712;51.134;4.156;2023-05-10T04:39:20;13.00;99.90
23087;DHT22;11712;51.134;4.156;2023-05-10T04:41:46;13.00;99.90
23087;DHT22;11712;51.134;4.156;2023-05-10T04:44:11;13.10;99.90
23087;DHT22;11712;51.134;4.156;2023-05-10T04:46:37;13.10;99.90
23087;DHT22;11712;51.134;4.156;2023-05-10T04:49:02;13.00;99.90
23087;DHT22;11712;51.134;4.156;2023-05-10T04:51:28;13.00;99.90
23087;DHT22;11712;51.134;4.156;2023-05-10T04:53:53;13.00;99.90
23087;DHT22;11712;51.134;4.156;2023-05-10T04:56:19;13.10;99.90
23087;DHT22;11712;51.134;4.156;2023-05-10T04:58:45;13.10;99.90
23087;DHT22;11712;51.134;4.156;2023-05-10T05:01:11;13.10;99.90
23087;DHT22;11712;51.134;4.156;2023-05-10T05:03:36;13.10;99.90
23087;DHT22;11712;51.134;4.156;2023-05-10T05:06:02;13.10;99.90
23087;DHT22;11712;51.134;4.156;2023-05-10T05:08:28;13.00;99.90
23087;DHT22;11712;51.134;4.156;2023-05-10T05:10:53;13.00;99.90
23087;DHT22;11712;51.134;4.156;2023-05-10T05:13:20;13.00;99.90
23087;DHT22;11712;51.134;4.156;2023-05-10T05:15:45;13.00;99.90
23087;DHT22;11712;51.134;4.156;2023-05-10T05:18:11;13.10;99.90
23087;DHT22;11712;51.134;4.156;2023-05-10T05:20:36;13.20;99.90
23087;DHT22;11712;51.134;4.156;2023-05-10T05:23:02;13.30;99.90
23087;DHT22;11712;51.134;4.156;2023-05-10T05:25:27;13.40;99.90
23087;DHT22;11712;51.134;4.156;2023-05-10T05:27:53;13.40;99.90
23087;DHT22;11712;51.134;4.156;2023-05-10T05:30:19;13.40;99.90
23087;DHT22;11712;51.134;4.156;2023-05-10T05:32:44;13.40;99.90
23087;DHT22;11712;51.134;4.156;2023-05-10T05:35:10;13.40;99.90
23087;DHT22;11712;51.134;4.156;2023-05-10T05:37:36;13.50;99.90
23087;DHT22;11712;51.134;4.156;2023-05-10T05:40:02;13.50;99.90
23087;DHT22;11712;51.134;4.156;2023-05-10T05:42:28;13.50;99.90
23087;DHT22;11712;51.134;4.156;2023-05-10T05:44:54;13.50;99.90
23087;DHT22;11712;51.134;4.156;2023-05-10T05:47:19;13.60;99.90
23087;DHT22;11712;51.134;4.156;2023-05-10T05:49:45;13.60;99.90
23087;DHT22;11712;51.134;4.156;2023-05-10T05:52:11;13.60;99.90
23087;DHT22;11712;51.134;4.156;2023-05-10T05:54:36;13.60;99.90
23087;DHT22;11712;51.134;4.156;2023-05-10T05:57:02;13.60;99.90
23087;DHT22;11712;51.134;4.156;2023-05-10T05:59:28;13.60;99.90
23087;DHT22;11712;51.134;4.156;2023-05-10T06:01:53;13.60;99.90
23087;DHT22;11712;51.134;4.156;2023-05-10T06:04:19;13.60;99.90
23087;DHT22;11712;51.134;4.156;2023-05-10T06:06:45;13.60;99.90
23087;DHT22;11712;51.134;4.156;2023-05-10T06:09:10;13.70;99.90
23087;DHT22;11712;51.134;4.156;2023-05-10T06:11:36;13.70;99.90
23087;DHT22;11712;51.134;4.156;2023-05-10T06:14:02;13.60;99.90
23087;DHT22;11712;51.134;4.156;2023-05-10T06:16:29;13.60;99.90
23087;DHT22;11712;51.134;4.156;2023-05-10T06:18:54;13.60;99.90
23087;DHT22;11712;51.134;4.156;2023-05-10T06:21:20;13.60;99.90
23087;DHT22;11712;51.134;4.156;2023-05-10T06:23:46;13.60;99.90
23087;DHT22;11712;51.134;4.156;2023-05-10T06:26:11;13.70;99.90
23087;DHT22;11712;51.134;4.156;2023-05-10T06:28:37;13.70;99.90
23087;DHT22;11712;51.134;4.156;2023-05-10T06:31:06;13.70;99.90
23087;DHT22;11712;51.134;4.156;2023-05-10T06:33:32;13.70;99.90
23087;DHT22;11712;51.134;4.156;2023-05-10T06:35:57;13.70;99.90
23087;DHT22;11712;51.134;4.156;2023-05-10T06:38:23;13.60;99.90
23087;DHT22;11712;51.134;4.156;2023-05-10T06:40:48;13.60;99.90
23087;DHT22;11712;51.134;4.156;2023-05-10T06:43:14;13.60;99.90
23087;DHT22;11712;51.134;4.156;2023-05-10T06:45:40;13.60;99.90
23087;DHT22;11712;51.134;4.156;2023-05-10T06:48:06;13.70;99.90
23087;DHT22;11712;51.134;4.156;2023-05-10T06:50:32;13.70;99.90
23087;DHT22;11712;51.134;4.156;2023-05-10T06:52:58;13.80;99.90
23087;DHT22;11712;51.134;4.156;2023-05-10T06:55:24;13.90;99.90
23087;DHT22;11712;51.134;4.156;2023-05-10T06:57:50;13.90;99.90
23087;DHT22;11712;51.134;4.156;2023-05-10T07:00:16;14.00;99.90
23087;DHT22;11712;51.134;4.156;2023-05-10T07:02:42;14.20;99.90
23087;DHT22;11712;51.134;4.156;2023-05-10T07:05:07;14.20;99.90
23087;DHT22;11712;51.134;4.156;2023-05-10T07:07:33;14.30;99.90
23087;DHT22;11712;51.134;4.156;2023-05-10T07:09:59;14.30;99.90
23087;DHT22;11712;51.134;4.156;2023-05-10T07:12:25;14.30;99.90
23087;DHT22;11712;51.134;4.156;2023-05-10T07:14:51;14.30;99.90
23087;DHT22;11712;51.134;4.156;2023-05-10T07:17:16;14.40;99.90
23087;DHT22;11712;51.134;4.156;2023-05-10T07:19:42;14.40;99.90
23087;DHT22;11712;51.134;4.156;2023-05-10T07:22:08;14.60;99.90
23087;DHT22;11712;51.134;4.156;2023-05-10T07:24:34;14.70;99.90
23087;DHT22;11712;51.134;4.156;2023-05-10T07:27:00;15.00;99.90
23087;DHT22;11712;51.134;4.156;2023-05-10T07:29:26;15.20;99.90
23087;DHT22;11712;51.134;4.156;2023-05-10T07:31:51;15.40;99.90
23087;DHT22;11712;51.134;4.156;2023-05-10T07:34:17;15.50;99.90
23087;DHT22;11712;51.134;4.156;2023-05-10T07:36:42;15.70;99.90
23087;DHT22;11712;51.134;4.156;2023-05-10T07:39:08;15.70;99.90
23087;DHT22;11712;51.134;4.156;2023-05-10T07:41:34;15.50;99.90
23087;DHT22;11712;51.134;4.156;2023-05-10T07:43:59;15.40;99.90
23087;DHT22;11712;51.134;4.156;2023-05-10T07:46:25;15.40;99.90
23087;DHT22;11712;51.134;4.156;2023-05-10T07:48:50;15.40;99.90
23087;DHT22;11712;51.134;4.156;2023-05-10T07:51:16;15.40;99.90
23087;DHT22;11712;51.134;4.156;2023-05-10T07:53:41;15.50;99.90
23087;DHT22;11712;51.134;4.156;2023-05-10T07:56:20;15.40;99.90
23087;DHT22;11712;51.134;4.156;2023-05-10T07:58:46;15.40;99.90
23087;DHT22;11712;51.134;4.156;2023-05-10T08:01:11;15.60;99.90
23087;DHT22;11712;51.134;4.156;2023-05-10T08:03:37;15.80;99.90
23087;DHT22;11712;51.134;4.156;2023-05-10T08:06:02;16.20;99.90
23087;DHT22;11712;51.134;4.156;2023-05-10T08:08:28;16.60;99.90
23087;DHT22;11712;51.134;4.156;2023-05-10T08:10:54;16.70;99.90
23087;DHT22;11712;51.134;4.156;2023-05-10T08:13:20;16.60;99.90
23087;DHT22;11712;51.134;4.156;2023-05-10T08:15:46;16.70;99.90
23087;DHT22;11712;51.134;4.156;2023-05-10T08:18:12;16.80;99.90
23087;DHT22;11712;51.134;4.156;2023-05-10T08:20:38;16.90;99.90
23087;DHT22;11712;51.134;4.156;2023-05-10T08:23:03;16.90;99.90
23087;DHT22;11712;51.134;4.156;2023-05-10T08:25:29;16.80;99.90
23087;DHT22;11712;51.134;4.156;2023-05-10T08:27:54;17.00;99.90
23087;DHT22;11712;51.134;4.156;2023-05-10T08:30:20;17.10;99.90
23087;DHT22;11712;51.134;4.156;2023-05-10T08:32:46;17.00;99.90
23087;DHT22;11712;51.134;4.156;2023-05-10T08:35:11;16.90;99.90
23087;DHT22;11712;51.134;4.156;2023-05-10T08:37:37;17.20;99.90
23087;DHT22;11712;51.134;4.156;2023-05-10T08:40:02;17.60;99.90
23087;DHT22;11712;51.134;4.156;2023-05-10T08:42:28;17.40;99.90
23087;DHT22;11712;51.134;4.156;2023-05-10T08:44:55;17.00;99.90
23087;DHT22;11712;51.134;4.156;2023-05-10T08:47:22;16.80;99.90
23087;DHT22;11712;51.134;4.156;2023-05-10T08:49:48;16.70;99.90
23087;DHT22;11712;51.134;4.156;2023-05-10T08:52:16;16.50;99.90
23087;DHT22;11712;51.134;4.156;2023-05-10T08:54:42;16.30;99.90
23087;DHT22;11712;51.134;4.156;2023-05-10T08:57:09;16.10;99.90
23087;DHT22;11712;51.134;4.156;2023-05-10T08:59:35;16.00;99.90
23087;DHT22;11712;51.134;4.156;2023-05-10T09:02:01;15.80;99.90
23087;DHT22;11712;51.134;4.156;2023-05-10T09:04:27;15.60;99.90
23087;DHT22;11712;51.134;4.156;2023-05-10T09:06:53;15.50;99.90
23087;DHT22;11712;51.134;4.156;2023-05-10T09:09:19;15.40;99.90
23087;DHT22;11712;51.134;4.156;2023-05-10T09:11:45;15.30;99.90
23087;DHT22;11712;51.134;4.156;2023-05-10T09:14:11;15.40;99.90
23087;DHT22;11712;51.134;4.156;2023-05-10T09:16:37;15.30;99.90
23087;DHT22;11712;51.134;4.156;2023-05-10T09:19:03;15.50;99.90
23087;DHT22;11712;51.134;4.156;2023-05-10T09:21:29;15.60;99.90
23087;DHT22;11712;51.134;4.156;2023-05-10T09:23:55;15.90;99.90
23087;DHT22;11712;51.134;4.156;2023-05-10T09:26:24;16.40;99.90
23087;DHT22;11712;51.134;4.156;2023-05-10T09:28:53;16.40;99.90
23087;DHT22;11712;51.134;4.156;2023-05-10T09:31:19;16.30;99.90
23087;DHT22;11712;51.134;4.156;2023-05-10T09:33:45;16.30;99.90
23087;DHT22;11712;51.134;4.156;2023-05-10T09:36:11;16.20;99.90
23087;DHT22;11712;51.134;4.156;2023-05-10T09:41:16;16.20;99.90
23087;DHT22;11712;51.134;4.156;2023-05-10T09:43:42;16.30;99.90
23087;DHT22;11712;51.134;4.156;2023-05-10T09:46:08;16.70;99.90
23087;DHT22;11712;51.134;4.156;2023-05-10T09:48:34;17.20;99.90
23087;DHT22;11712;51.134;4.156;2023-05-10T09:51:05;17.50;99.90
23087;DHT22;11712;51.134;4.156;2023-05-10T09:53:31;17.70;99.90
23087;DHT22;11712;51.134;4.156;2023-05-10T09:55:57;17.50;99.90
23087;DHT22;11712;51.134;4.156;2023-05-10T09:58:22;17.10;99.90
23087;DHT22;11712;51.134;4.156;2023-05-10T10:00:48;17.40;99.90
23087;DHT22;11712;51.134;4.156;2023-05-10T10:03:16;17.60;99.90
23087;DHT22;11712;51.134;4.156;2023-05-10T10:05:43;17.60;99.90
23087;DHT22;11712;51.134;4.156;2023-05-10T10:08:09;17.40;99.90
23087;DHT22;11712;51.134;4.156;2023-05-10T10:10:34;17.20;99.90
23087;DHT22;11712;51.134;4.156;2023-05-10T10:13:00;17.00;99.90
23087;DHT22;11712;51.134;4.156;2023-05-10T10:15:26;16.80;99.90
23087;DHT22;11712;51.134;4.156;2023-05-10T10:17:52;16.90;99.90
23087;DHT22;11712;51.134;4.156;2023-05-10T10:20:19;16.90;99.90
23087;DHT22;11712;51.134;4.156;2023-05-10T10:22:45;17.00;99.90
23087;DHT22;11712;51.134;4.156;2023-05-10T10:25:12;16.70;99.90
23087;DHT22;11712;51.134;4.156;2023-05-10T10:30:06;17.00;99.90
23087;DHT22;11712;51.134;4.156;2023-05-10T10:32:38;17.00;99.90
23087;DHT22;11712;51.134;4.156;2023-05-10T10:35:07;17.20;99.90
23087;DHT22;11712;51.134;4.156;2023-05-10T10:37:43;17.10;99.90
23087;DHT22;11712;51.134;4.156;2023-05-10T10:40:25;16.80;99.90
23087;DHT22;11712;51.134;4.156;2023-05-10T10:42:51;16.70;99.90
23087;DHT22;11712;51.134;4.156;2023-05-10T10:45:16;17.00;99.90
23087;DHT22;11712;51.134;4.156;2023-05-10T10:47:42;17.00;99.90
23087;DHT22;11712;51.134;4.156;2023-05-10T10:50:08;17.10;99.90
23087;DHT22;11712;51.134;4.156;2023-05-10T10:52:43;17.00;99.90
23087;DHT22;11712;51.134;4.156;2023-05-10T10:55:13;17.00;99.90
23087;DHT22;11712;51.134;4.156;2023-05-10T10:57:57;16.80;99.90
23087;DHT22;11712;51.134;4.156;2023-05-10T11:03:11;16.80;99.90
23087;DHT22;11712;51.134;4.156;2023-05-10T11:05:49;16.60;99.90
23087;DHT22;11712;51.134;4.156;2023-05-10T11:15:55;16.90;99.90
23087;DHT22;11712;51.134;4.156;2023-05-10T11:18:26;17.20;99.90
23087;DHT22;11712;51.134;4.156;2023-05-10T11:23:17;17.10;99.90
23087;DHT22;11712;51.134;4.156;2023-05-10T11:25:44;17.20;99.90
23087;DHT22;11712;51.134;4.156;2023-05-10T11:28:10;17.20;99.90
23087;DHT22;11712;51.134;4.156;2023-05-10T11:30:36;17.40;99.90
23087;DHT22;11712;51.134;4.156;2023-05-10T11:33:02;17.60;99.90
23087;DHT22;11712;51.134;4.156;2023-05-10T11:35:27;17.70;99.90
23087;DHT22;11712;51.134;4.156;2023-05-10T11:37:53;17.60;99.90
23087;DHT22;11712;51.134;4.156;2023-05-10T11:40:21;17.60;99.90
23087;DHT22;11712;51.134;4.156;2023-05-10T11:42:46;17.70;99.90
23087;DHT22;11712;51.134;4.156;2023-05-10T11:45:12;17.60;99.90
23087;DHT22;11712;51.134;4.156;2023-05-10T11:47:38;17.70;99.90
23087;DHT22;11712;51.134;4.156;2023-05-10T11:50:04;17.70;99.90
23087;DHT22;11712;51.134;4.156;2023-05-10T11:52:35;17.60;99.90
23087;DHT22;11712;51.134;4.156;2023-05-10T11:55:00;17.40;99.90
23087;DHT22;11712;51.134;4.156;2023-05-10T11:57:27;17.30;99.90
23087;DHT22;11712;51.134;4.156;2023-05-10T11:59:54;17.30;99.90
23087;DHT22;11712;51.134;4.156;2023-05-10T12:02:22;17.30;99.90
23087;DHT22;11712;51.134;4.156;2023-05-10T12:04:48;17.40;99.90
23087;DHT22;11712;51.134;4.156;2023-05-10T12:07:13;17.40;99.90
23087;DHT22;11712;51.134;4.156;2023-05-10T12:12:23;17.40;99.90
23087;DHT22;11712;51.134;4.156;2023-05-10T12:14:50;17.50;99.90
23087;DHT22;11712;51.134;4.156;2023-05-10T12:17:15;17.40;99.90
23087;DHT22;11712;51.134;4.156;2023-05-10T12:19:43;17.30;99.90
23087;DHT22;11712;51.134;4.156;2023-05-10T12:22:09;17.20;99.90
23087;DHT22;11712;51.134;4.156;2023-05-10T12:24:34;17.00;99.90
23087;DHT22;11712;51.134;4.156;2023-05-10T12:27:04;16.80;99.90
23087;DHT22;11712;51.134;4.156;2023-05-10T12:29:30;16.80;99.90
23087;DHT22;11712;51.134;4.156;2023-05-10T12:31:56;16.90;99.90
23087;DHT22;11712;51.134;4.156;2023-05-10T12:34:30;17.00;99.90
23087;DHT22;11712;51.134;4.156;2023-05-10T12:36:55;17.00;99.90
23087;DHT22;11712;51.134;4.156;2023-05-10T12:39:21;17.00;99.90
23087;DHT22;11712;51.134;4.156;2023-05-10T12:41:47;16.90;99.90
23087;DHT22;11712;51.134;4.156;2023-05-10T12:44:12;17.00;99.90
23087;DHT22;11712;51.134;4.156;2023-05-10T12:46:38;17.00;99.90
23087;DHT22;11712;51.134;4.156;2023-05-10T12:49:03;16.60;99.90
23087;DHT22;11712;51.134;4.156;2023-05-10T12:51:29;16.30;99.90
23087;DHT22;11712;51.134;4.156;2023-05-10T12:53:56;15.90;99.90
23087;DHT22;11712;51.134;4.156;2023-05-10T12:56:21;15.70;99.90
23087;DHT22;11712;51.134;4.156;2023-05-10T12:58:47;15.50;99.90
23087;DHT22;11712;51.134;4.156;2023-05-10T13:01:13;15.50;99.90
23087;DHT22;11712;51.134;4.156;2023-05-10T13:03:39;15.50;99.90
23087;DHT22;11712;51.134;4.156;2023-05-10T13:06:05;15.50;99.90
23087;DHT22;11712;51.134;4.156;2023-05-10T13:08:31;15.50;99.90
23087;DHT22;11712;51.134;4.156;2023-05-10T13:11:01;15.40;99.90
23087;DHT22;11712;51.134;4.156;2023-05-10T13:13:27;15.50;99.90
23087;DHT22;11712;51.134;4.156;2023-05-10T13:15:53;15.50;99.90
23087;DHT22;11712;51.134;4.156;2023-05-10T13:18:19;15.40;99.90
23087;DHT22;11712;51.134;4.156;2023-05-10T13:20:44;15.50;99.90
23087;DHT22;11712;51.134;4.156;2023-05-10T13:23:10;15.70;99.90
23087;DHT22;11712;51.134;4.156;2023-05-10T13:25:36;15.80;99.90
23087;DHT22;11712;51.134;4.156;2023-05-10T13:28:01;15.90;99.90
23087;DHT22;11712;51.134;4.156;2023-05-10T13:30:27;16.10;99.90
23087;DHT22;11712;51.134;4.156;2023-05-10T13:32:54;16.20;99.90
23087;DHT22;11712;51.134;4.156;2023-05-10T13:35:19;16.40;99.90
23087;DHT22;11712;51.134;4.156;2023-05-10T13:37:45;16.50;99.90
23087;DHT22;11712;51.134;4.156;2023-05-10T13:40:11;16.50;99.90
23087;DHT22;11712;51.134;4.156;2023-05-10T13:42:37;16.70;99.90
23087;DHT22;11712;51.134;4.156;2023-05-10T13:45:02;16.80;99.90
23087;DHT22;11712;51.134;4.156;2023-05-10T13:47:28;16.90;99.90
23087;DHT22;11712;51.134;4.156;2023-05-10T13:49:54;17.10;99.90
23087;DHT22;11712;51.134;4.156;2023-05-10T13:52:19;17.40;99.90
23087;DHT22;11712;51.134;4.156;2023-05-10T13:54:45;17.70;99.90
23087;DHT22;11712;51.134;4.156;2023-05-10T13:57:11;17.90;99.90
23087;DHT22;11712;51.134;4.156;2023-05-10T13:59:39;18.00;99.90
23087;DHT22;11712;51.134;4.156;2023-05-10T14:02:04;17.90;99.90
23087;DHT22;11712;51.134;4.156;2023-05-10T14:04:30;18.00;99.90
23087;DHT22;11712;51.134;4.156;2023-05-10T14:06:56;17.90;99.90
23087;DHT22;11712;51.134;4.156;2023-05-10T14:09:21;17.60;99.90
23087;DHT22;11712;51.134;4.156;2023-05-10T14:11:47;16.90;99.90
23087;DHT22;11712;51.134;4.156;2023-05-10T14:14:12;16.30;99.90
23087;DHT22;11712;51.134;4.156;2023-05-10T14:16:43;15.70;99.90
23087;DHT22;11712;51.134;4.156;2023-05-10T14:19:08;15.30;99.90
23087;DHT22;11712;51.134;4.156;2023-05-10T14:21:34;15.10;99.90
23087;DHT22;11712;51.134;4.156;2023-05-10T14:24:00;15.00;99.90
23087;DHT22;11712;51.134;4.156;2023-05-10T14:26:25;14.90;99.90
23087;DHT22;11712;51.134;4.156;2023-05-10T14:28:51;14.70;99.90
23087;DHT22;11712;51.134;4.156;2023-05-10T14:31:17;14.70;99.90
23087;DHT22;11712;51.134;4.156;2023-05-10T14:33:46;14.60;99.90
23087;DHT22;11712;51.134;4.156;2023-05-10T14:36:12;14.60;99.90
23087;DHT22;11712;51.134;4.156;2023-05-10T14:38:37;14.80;99.90
23087;DHT22;11712;51.134;4.156;2023-05-10T14:41:03;15.00;99.90
23087;DHT22;11712;51.134;4.156;2023-05-10T14:43:29;14.90;99.90
23087;DHT22;11712;51.134;4.156;2023-05-10T14:45:55;15.00;99.90
23087;DHT22;11712;51.134;4.156;2023-05-10T14:48:21;15.10;99.90
23087;DHT22;11712;51.134;4.156;2023-05-10T14:50:46;15.20;99.90
23087;DHT22;11712;51.134;4.156;2023-05-10T14:53:12;15.20;99.90
23087;DHT22;11712;51.134;4.156;2023-05-10T14:55:38;15.30;99.90
23087;DHT22;11712;51.134;4.156;2023-05-10T14:58:04;15.30;99.90
23087;DHT22;11712;51.134;4.156;2023-05-10T15:00:29;15.20;99.90
23087;DHT22;11712;51.134;4.156;2023-05-10T15:02:55;15.30;99.90
23087;DHT22;11712;51.134;4.156;2023-05-10T15:05:21;15.30;99.90
23087;DHT22;11712;51.134;4.156;2023-05-10T15:07:46;15.20;99.90
23087;DHT22;11712;51.134;4.156;2023-05-10T15:10:12;14.90;99.90
23087;DHT22;11712;51.134;4.156;2023-05-10T15:12:39;14.90;99.90
23087;DHT22;11712;51.134;4.156;2023-05-10T15:15:04;14.80;99.90
23087;DHT22;11712;51.134;4.156;2023-05-10T15:17:30;14.60;99.90
23087;DHT22;11712;51.134;4.156;2023-05-10T15:19:56;14.40;99.90
23087;DHT22;11712;51.134;4.156;2023-05-10T15:22:22;14.50;99.90
23087;DHT22;11712;51.134;4.156;2023-05-10T15:24:47;14.50;99.90
23087;DHT22;11712;51.134;4.156;2023-05-10T15:27:13;14.60;99.90
23087;DHT22;11712;51.134;4.156;2023-05-10T15:29:38;14.70;99.90
23087;DHT22;11712;51.134;4.156;2023-05-10T15:32:04;14.80;99.90
23087;DHT22;11712;51.134;4.156;2023-05-10T15:34:30;14.90;99.90
23087;DHT22;11712;51.134;4.156;2023-05-10T15:36:55;14.90;99.90
23087;DHT22;11712;51.134;4.156;2023-05-10T15:39:21;14.90;99.90
23087;DHT22;11712;51.134;4.156;2023-05-10T15:41:47;14.90;99.90
23087;DHT22;11712;51.134;4.156;2023-05-10T15:44:12;14.80;99.90
23087;DHT22;11712;51.134;4.156;2023-05-10T15:46:38;14.80;99.90
23087;DHT22;11712;51.134;4.156;2023-05-10T15:49:04;14.80;99.90
23087;DHT22;11712;51.134;4.156;2023-05-10T15:51:31;14.70;99.90
23087;DHT22;11712;51.134;4.156;2023-05-10T15:53:58;14.60;99.90
23087;DHT22;11712;51.134;4.156;2023-05-10T15:56:23;14.40;99.90
23087;DHT22;11712;51.134;4.156;2023-05-10T15:58:49;14.40;99.90
23087;DHT22;11712;51.134;4.156;2023-05-10T16:01:14;14.40;99.90
23087;DHT22;11712;51.134;4.156;2023-05-10T16:03:40;14.20;99.90